Time;durP1;ratioP1;P1;durP2;ratioP2;P2;SDS_P1;SDS_P2;PMS_P1;PMS_P2;Temp;Humidity;BMP_temperature;BMP_pressure;BME280_temperature;BME280_humidity;BME280_pressure;Samples;Min_cycle;Max_cycle;Signal;HPM_P1;HPM_P2
2022/07/10 00:01:23;;;;;;;;;;;18.20;99.90;;;;;;5054220;28;19912;-73
2022/07/10 00:03:49;;;;;;;;;;;18.10;99.90;;;;;;5071882;28;20371;-73
2022/07/10 00:06:18;;;;;;;;;;;18.10;99.90;;;;;;5071935;28;19913;-73
2022/07/10 00:08:43;;;;;;;;;;;18.10;99.90;;;;;;5071878;28;19920;-73
2022/07/10 00:11:09;;;;;;;;;;;18.10;99.90;;;;;;5071787;28;19920;-73
2022/07/10 00:13:35;;;;;;;;;;;18.10;99.90;;;;;;5071574;28;19923;-73
2022/07/10 00:16:01;;;;;;;;;;;18.10;99.90;;;;;;5072018;28;20399;-73
2022/07/10 00:18:30;;;;;;;;;;;18.10;99.90;;;;;;5071507;28;19921;-72
2022/07/10 00:20:55;;;;;;;;;;;18.00;99.90;;;;;;5071701;28;19957;-73
2022/07/10 00:23:21;;;;;;;;;;;18.00;99.90;;;;;;5053515;28;20335;-73
2022/07/10 00:25:47;;;;;;;;;;;17.90;99.90;;;;;;5071357;28;19912;-73
2022/07/10 00:28:12;;;;;;;;;;;17.90;99.90;;;;;;5071220;28;19912;-72
2022/07/10 00:30:38;;;;;;;;;;;17.80;99.90;;;;;;5071219;28;20355;-73
2022/07/10 00:33:03;;;;;;;;;;;17.90;99.90;;;;;;5071124;28;19924;-73
2022/07/10 00:35:29;;;;;;;;;;;17.90;99.90;;;;;;5070334;28;19920;-73
2022/07/10 00:37:55;;;;;;;;;;;17.80;99.90;;;;;;5053002;28;19916;-73
2022/07/10 00:40:20;;;;;;;;;;;17.80;99.90;;;;;;5070896;28;19924;-73
2022/07/10 00:42:46;;;;;;;;;;;17.70;99.90;;;;;;5070920;28;20365;-73
2022/07/10 00:45:11;;;;;;;;;;;17.70;99.90;;;;;;5071021;28;19917;-73
2022/07/10 00:47:37;;;;;;;;;;;17.60;99.90;;;;;;5070808;28;20364;-73
2022/07/10 00:50:03;;;;;;;;;;;17.60;99.90;;;;;;5052736;28;19917;-73
2022/07/10 00:52:29;;;;;;;;;;;17.60;99.90;;;;;;5070578;28;20389;-73
2022/07/10 00:54:54;;;;;;;;;;;17.60;99.90;;;;;;5070629;28;20156;-73
2022/07/10 00:57:20;;;;;;;;;;;17.60;99.90;;;;;;5070728;28;19955;-73
2022/07/10 00:59:46;;;;;;;;;;;17.60;99.90;;;;;;5070579;28;19989;-73
2022/07/10 01:02:13;;;;;;;;;;;17.60;99.90;;;;;;5070663;28;19908;-73
2022/07/10 01:04:38;;;;;;;;;;;17.60;99.90;;;;;;5070594;28;20007;-73
2022/07/10 01:07:04;;;;;;;;;;;17.60;99.90;;;;;;5070782;28;20001;-73
2022/07/10 01:09:30;;;;;;;;;;;17.60;99.90;;;;;;5070505;28;20426;-73
2022/07/10 01:11:56;;;;;;;;;;;17.50;99.90;;;;;;5052611;28;19920;-73
2022/07/10 01:14:22;;;;;;;;;;;17.50;99.90;;;;;;5052654;28;20007;-72
2022/07/10 01:16:48;;;;;;;;;;;17.50;99.90;;;;;;5070945;28;20018;-73
2022/07/10 01:19:13;;;;;;;;;;;17.40;99.90;;;;;;5070708;28;19948;-73
2022/07/10 01:21:39;;;;;;;;;;;17.50;99.90;;;;;;5052499;28;20430;-73
2022/07/10 01:24:08;;;;;;;;;;;17.30;99.90;;;;;;5070639;28;19909;-73
2022/07/10 01:26:33;;;;;;;;;;;17.40;99.90;;;;;;5070796;28;19921;-73
2022/07/10 01:29:01;;;;;;;;;;;17.40;99.90;;;;;;5070425;28;20549;-73
2022/07/10 01:31:27;;;;;;;;;;;17.30;99.90;;;;;;5070859;28;19995;-73
2022/07/10 01:33:53;;;;;;;;;;;17.30;99.90;;;;;;5070325;28;19913;-72
2022/07/10 01:36:19;;;;;;;;;;;17.40;99.90;;;;;;5070562;28;19920;-72
2022/07/10 01:38:45;;;;;;;;;;;17.30;99.90;;;;;;5070295;28;20420;-72
2022/07/10 01:41:10;;;;;;;;;;;17.40;99.90;;;;;;5070359;28;20031;-73
2022/07/10 01:43:36;;;;;;;;;;;17.40;99.90;;;;;;5070189;28;19970;-72
2022/07/10 01:46:03;;;;;;;;;;;17.30;99.90;;;;;;5070359;28;19930;-72
2022/07/10 01:48:29;;;;;;;;;;;17.20;99.90;;;;;;5074090;28;20398;-72
2022/07/10 01:50:54;;;;;;;;;;;17.20;99.90;;;;;;5056126;28;20016;-73
2022/07/10 01:53:20;;;;;;;;;;;17.20;99.90;;;;;;5074366;28;20363;-73
2022/07/10 01:55:45;;;;;;;;;;;17.20;99.90;;;;;;5074695;28;20006;-72
2022/07/10 01:58:11;;;;;;;;;;;17.20;99.90;;;;;;5074416;28;20356;-73
2022/07/10 02:00:36;;;;;;;;;;;17.20;99.90;;;;;;5074726;28;19916;-73
2022/07/10 02:05:47;;;;;;;;;;;17.10;99.90;;;;;;5074989;28;20418;-73
2022/07/10 02:08:12;;;;;;;;;;;17.10;99.90;;;;;;5074056;28;19908;-72
2022/07/10 02:10:38;;;;;;;;;;;17.10;99.90;;;;;;5074237;28;19913;-72
2022/07/10 02:13:04;;;;;;;;;;;17.10;99.90;;;;;;5073996;28;19916;-73
2022/07/10 02:15:29;;;;;;;;;;;17.00;99.90;;;;;;5073990;28;20019;-73
2022/07/10 02:17:55;;;;;;;;;;;17.00;99.90;;;;;;5073774;28;19912;-72
2022/07/10 02:20:20;;;;;;;;;;;17.00;99.90;;;;;;5073819;28;19913;-72
2022/07/10 02:22:46;;;;;;;;;;;16.90;99.90;;;;;;5073728;28;19912;-72
2022/07/10 02:25:11;;;;;;;;;;;16.90;99.90;;;;;;5073751;28;20353;-72
2022/07/10 02:27:37;;;;;;;;;;;17.00;99.90;;;;;;5073599;28;19958;-73
2022/07/10 02:30:03;;;;;;;;;;;16.90;99.90;;;;;;5073585;28;19944;-73
2022/07/10 02:32:28;;;;;;;;;;;16.80;99.90;;;;;;5055297;28;20419;-73
2022/07/10 02:34:54;;;;;;;;;;;16.90;99.90;;;;;;5073356;28;19912;-73
2022/07/10 02:37:19;;;;;;;;;;;16.80;99.90;;;;;;5073308;28;20003;-73
2022/07/10 02:39:45;;;;;;;;;;;16.80;99.90;;;;;;5055217;28;19946;-73
2022/07/10 02:42:10;;;;;;;;;;;16.80;99.90;;;;;;5073412;28;20010;-73
2022/07/10 02:44:36;;;;;;;;;;;16.80;99.90;;;;;;5073660;28;20355;-73
2022/07/10 02:47:02;;;;;;;;;;;16.80;99.90;;;;;;5055226;28;19909;-72
2022/07/10 02:49:27;;;;;;;;;;;16.80;99.90;;;;;;5055180;28;19916;-73
2022/07/10 02:51:52;;;;;;;;;;;16.80;99.90;;;;;;5073127;28;19995;-72
2022/07/10 02:54:18;;;;;;;;;;;16.70;99.90;;;;;;5073136;28;19916;-73
2022/07/10 02:56:43;;;;;;;;;;;16.70;99.90;;;;;;5073475;28;19927;-73
2022/07/10 02:59:09;;;;;;;;;;;16.70;99.90;;;;;;5072160;28;19962;-73
2022/07/10 03:01:34;;;;;;;;;;;16.70;99.90;;;;;;5073436;28;19982;-73
2022/07/10 03:04:01;;;;;;;;;;;16.80;99.90;;;;;;5073312;28;19913;-73
2022/07/10 03:06:26;;;;;;;;;;;16.70;99.90;;;;;;5055201;28;19916;-73
2022/07/10 03:08:52;;;;;;;;;;;16.80;99.90;;;;;;5072853;28;19937;-73
2022/07/10 03:11:17;;;;;;;;;;;16.80;99.90;;;;;;5073435;28;20348;-73
2022/07/10 03:13:43;;;;;;;;;;;16.90;99.90;;;;;;5072813;28;20355;-73
2022/07/10 03:16:08;;;;;;;;;;;16.90;99.90;;;;;;5073327;28;19920;-72
2022/07/10 03:18:34;;;;;;;;;;;16.90;99.90;;;;;;5072766;28;19908;-72
2022/07/10 03:20:59;;;;;;;;;;;16.90;99.90;;;;;;5073066;28;20011;-73
2022/07/10 03:23:25;;;;;;;;;;;16.90;99.90;;;;;;5072884;28;19908;-72
2022/07/10 03:25:51;;;;;;;;;;;17.00;99.90;;;;;;5072880;28;19986;-73
2022/07/10 03:28:16;;;;;;;;;;;17.00;99.90;;;;;;5072222;28;19909;-72
2022/07/10 03:30:42;;;;;;;;;;;17.00;99.90;;;;;;5072673;28;19917;-73
2022/07/10 03:33:07;;;;;;;;;;;17.00;99.90;;;;;;5072207;28;19912;-73
2022/07/10 03:35:33;;;;;;;;;;;16.90;99.90;;;;;;5072575;28;19927;-73
2022/07/10 03:37:58;;;;;;;;;;;17.00;99.90;;;;;;5072440;28;19913;-73
2022/07/10 03:40:26;;;;;;;;;;;17.00;99.90;;;;;;5072198;28;19928;-73
2022/07/10 03:42:51;;;;;;;;;;;17.10;99.90;;;;;;5072244;28;20368;-73
2022/07/10 03:45:17;;;;;;;;;;;17.20;99.90;;;;;;5072840;28;19970;-72
2022/07/10 03:47:42;;;;;;;;;;;17.20;99.90;;;;;;5054154;28;20366;-72
2022/07/10 03:50:09;;;;;;;;;;;17.20;99.90;;;;;;5072378;28;20390;-72
2022/07/10 03:52:34;;;;;;;;;;;17.20;99.90;;;;;;5053998;28;19923;-73
2022/07/10 03:55:00;;;;;;;;;;;17.30;99.90;;;;;;5053973;28;20310;-73
2022/07/10 04:00:11;;;;;;;;;;;17.30;99.90;;;;;;5071765;28;20035;-72
2022/07/10 04:02:37;;;;;;;;;;;17.40;99.90;;;;;;5071686;28;19955;-73
2022/07/10 04:05:06;;;;;;;;;;;17.40;99.90;;;;;;5072002;28;19959;-73
2022/07/10 04:07:31;;;;;;;;;;;17.50;99.90;;;;;;5053919;28;20172;-73
2022/07/10 04:09:57;;;;;;;;;;;17.50;99.90;;;;;;5071745;28;20379;-73
2022/07/10 04:12:22;;;;;;;;;;;17.60;99.90;;;;;;5071916;28;19912;-73
2022/07/10 04:14:51;;;;;;;;;;;17.70;99.90;;;;;;5071814;28;20015;-73
2022/07/10 04:17:19;;;;;;;;;;;17.70;99.90;;;;;;5071662;28;19970;-73
2022/07/10 04:19:46;;;;;;;;;;;17.80;99.90;;;;;;5071437;28;20333;-73
2022/07/10 04:22:11;;;;;;;;;;;17.80;99.90;;;;;;5071505;28;19916;-72
2022/07/10 04:24:37;;;;;;;;;;;17.90;99.90;;;;;;5053132;28;20252;-72
2022/07/10 04:27:02;;;;;;;;;;;17.90;99.90;;;;;;5071790;28;19923;-73
2022/07/10 04:29:28;;;;;;;;;;;17.90;99.90;;;;;;5053007;28;19908;-72
2022/07/10 04:31:54;;;;;;;;;;;18.00;99.90;;;;;;5071215;28;20363;-72
2022/07/10 04:34:19;;;;;;;;;;;18.10;99.90;;;;;;5071133;28;20007;-73
2022/07/10 04:36:45;;;;;;;;;;;18.00;99.90;;;;;;5053301;28;19917;-73
2022/07/10 04:39:10;;;;;;;;;;;18.10;99.90;;;;;;5052908;28;19915;-73
2022/07/10 04:41:37;;;;;;;;;;;18.00;99.90;;;;;;5071361;28;19956;-72
2022/07/10 04:44:02;;;;;;;;;;;18.10;99.90;;;;;;5053176;28;20013;-73
2022/07/10 04:46:28;;;;;;;;;;;18.20;99.90;;;;;;5071433;28;19952;-73
2022/07/10 04:48:53;;;;;;;;;;;18.20;99.90;;;;;;5070896;28;20349;-73
2022/07/10 04:51:19;;;;;;;;;;;18.20;99.90;;;;;;5053051;28;20010;-73
2022/07/10 04:53:44;;;;;;;;;;;18.30;99.90;;;;;;5052506;28;19916;-72
2022/07/10 04:56:10;;;;;;;;;;;18.20;99.90;;;;;;5070990;28;19917;-72
2022/07/10 04:58:35;;;;;;;;;;;18.10;99.90;;;;;;5070686;28;19909;-73
2022/07/10 05:01:01;;;;;;;;;;;18.10;99.90;;;;;;5070912;28;19956;-73
2022/07/10 05:03:27;;;;;;;;;;;18.10;99.90;;;;;;5070500;28;19908;-73
2022/07/10 05:05:53;;;;;;;;;;;18.10;99.90;;;;;;5070817;28;19920;-73
2022/07/10 05:08:18;;;;;;;;;;;18.20;99.90;;;;;;5070864;28;19920;-73
2022/07/10 05:10:44;;;;;;;;;;;18.10;99.90;;;;;;5071005;28;19916;-73
2022/07/10 05:13:10;;;;;;;;;;;18.20;99.90;;;;;;5070686;28;20344;-73
2022/07/10 05:15:35;;;;;;;;;;;18.20;99.90;;;;;;5070809;28;19917;-73
2022/07/10 05:18:01;;;;;;;;;;;18.30;99.90;;;;;;5070580;28;19957;-73
2022/07/10 05:20:26;;;;;;;;;;;18.40;99.90;;;;;;5070697;28;20310;-73
2022/07/10 05:22:52;;;;;;;;;;;18.40;99.90;;;;;;5069939;28;19909;-72
2022/07/10 05:25:18;;;;;;;;;;;18.60;99.90;;;;;;5070339;28;20441;-72
2022/07/10 05:27:43;;;;;;;;;;;18.60;99.90;;;;;;5070307;28;19912;-73
2022/07/10 05:30:09;;;;;;;;;;;18.70;99.90;;;;;;5052199;28;19924;-73
2022/07/10 05:32:41;;;;;;;;;;;18.70;99.90;;;;;;5070396;28;20382;-73
2022/07/10 05:35:07;;;;;;;;;;;18.80;99.90;;;;;;5070127;28;19917;-73
2022/07/10 05:37:32;;;;;;;;;;;18.80;99.90;;;;;;5070201;28;20378;-73
2022/07/10 05:39:58;;;;;;;;;;;18.90;99.90;;;;;;5070053;28;19947;-73
2022/07/10 05:42:23;;;;;;;;;;;18.90;99.90;;;;;;5070294;28;19943;-73
2022/07/10 05:44:49;;;;;;;;;;;18.90;99.90;;;;;;5052050;28;19916;-73
2022/07/10 05:47:14;;;;;;;;;;;19.00;99.90;;;;;;5070247;28;20343;-73
2022/07/10 05:49:40;;;;;;;;;;;19.00;99.90;;;;;;5070226;28;20011;-73
2022/07/10 05:52:05;;;;;;;;;;;19.10;99.90;;;;;;5052439;28;20378;-73
2022/07/10 05:54:31;;;;;;;;;;;19.10;99.90;;;;;;5070234;28;19932;-72
2022/07/10 05:56:57;;;;;;;;;;;19.10;99.90;;;;;;5070239;28;19958;-73
2022/07/10 05:59:23;;;;;;;;;;;19.20;99.90;;;;;;5070120;28;20003;-73
2022/07/10 06:01:48;;;;;;;;;;;19.30;99.90;;;;;;5070661;28;20003;-73
2022/07/10 06:04:13;;;;;;;;;;;19.40;99.90;;;;;;5051776;28;19912;-73
2022/07/10 06:06:39;;;;;;;;;;;19.50;99.90;;;;;;5070471;28;19920;-73
2022/07/10 06:09:04;;;;;;;;;;;19.60;99.90;;;;;;5070021;28;19959;-73
2022/07/10 06:11:30;;;;;;;;;;;19.60;99.90;;;;;;5069672;28;20269;-73
2022/07/10 06:13:56;;;;;;;;;;;19.70;99.90;;;;;;5070200;28;19960;-73
2022/07/10 06:16:22;;;;;;;;;;;19.70;99.90;;;;;;5070244;28;19970;-73
2022/07/10 06:18:48;;;;;;;;;;;19.80;99.90;;;;;;5069900;28;19909;-73
2022/07/10 06:21:13;;;;;;;;;;;20.00;99.90;;;;;;5070116;28;19917;-72
2022/07/10 06:23:39;;;;;;;;;;;20.20;99.90;;;;;;5070051;28;19980;-73
2022/07/10 06:26:04;;;;;;;;;;;20.40;99.90;;;;;;5069947;28;19939;-73
2022/07/10 06:28:30;;;;;;;;;;;20.40;99.90;;;;;;5069820;28;20339;-72
2022/07/10 06:30:55;;;;;;;;;;;20.50;99.90;;;;;;5070060;28;20000;-73
2022/07/10 06:33:21;;;;;;;;;;;20.60;99.90;;;;;;5069752;28;19948;-72
2022/07/10 06:35:47;;;;;;;;;;;20.70;99.90;;;;;;5073637;28;19917;-72
2022/07/10 06:38:12;;;;;;;;;;;20.80;99.90;;;;;;5056010;28;19908;-72
2022/07/10 06:40:38;;;;;;;;;;;20.70;99.90;;;;;;5073093;28;20030;-72
2022/07/10 06:43:03;;;;;;;;;;;20.80;99.90;;;;;;5073750;28;19913;-73
2022/07/10 06:45:29;;;;;;;;;;;20.70;99.90;;;;;;5073369;28;19971;-72
2022/07/10 06:47:59;;;;;;;;;;;20.80;99.90;;;;;;5073206;28;19999;-72
2022/07/10 06:50:25;;;;;;;;;;;20.70;99.90;;;;;;5054905;28;20083;-72
2022/07/10 06:52:51;;;;;;;;;;;20.80;99.90;;;;;;5072720;28;20364;-72
2022/07/10 06:55:20;;;;;;;;;;;20.80;99.90;;;;;;5072985;28;19916;-72
2022/07/10 06:57:45;;;;;;;;;;;20.90;99.90;;;;;;5073018;28;19920;-72
2022/07/10 07:00:11;;;;;;;;;;;21.00;99.90;;;;;;5055056;28;19916;-72
2022/07/10 07:02:37;;;;;;;;;;;21.20;99.90;;;;;;5073227;28;19965;-72
2022/07/10 07:05:03;;;;;;;;;;;21.30;99.90;;;;;;5055002;28;20003;-71
2022/07/10 07:07:29;;;;;;;;;;;21.30;99.90;;;;;;5054857;28;19912;-73
2022/07/10 07:09:54;;;;;;;;;;;21.40;99.90;;;;;;5073013;28;19923;-73
2022/07/10 07:12:20;;;;;;;;;;;21.40;99.90;;;;;;5072842;28;19999;-72
2022/07/10 07:14:46;;;;;;;;;;;21.50;99.90;;;;;;5072933;28;19920;-72
2022/07/10 07:17:14;;;;;;;;;;;21.60;99.90;;;;;;5072738;28;20206;-73
2022/07/10 07:25:09;;;;;;;;;;;21.80;99.90;;;;;;5072987;28;19993;-73
2022/07/10 07:27:35;;;;;;;;;;;22.00;99.90;;;;;;5072755;28;20003;-73
2022/07/10 07:30:02;;;;;;;;;;;22.10;99.90;;;;;;5072719;28;20054;-73
2022/07/10 07:32:28;;;;;;;;;;;22.30;99.90;;;;;;5072447;28;19995;-73
2022/07/10 07:34:53;;;;;;;;;;;22.50;99.90;;;;;;5072737;28;20028;-73
2022/07/10 07:37:19;;;;;;;;;;;22.70;99.90;;;;;;5072398;28;20391;-73
2022/07/10 07:39:44;;;;;;;;;;;22.80;99.90;;;;;;5072163;28;19925;-73
2022/07/10 07:42:10;;;;;;;;;;;23.00;99.90;;;;;;5072366;28;19912;-73
2022/07/10 07:44:35;;;;;;;;;;;23.00;99.90;;;;;;5053844;28;19958;-73
2022/07/10 07:47:01;;;;;;;;;;;22.90;99.90;;;;;;5054192;28;19912;-73
2022/07/10 07:49:26;;;;;;;;;;;22.70;99.90;;;;;;5072162;28;20355;-73
2022/07/10 07:51:51;;;;;;;;;;;22.50;99.90;;;;;;5072024;28;20294;-73
2022/07/10 07:54:17;;;;;;;;;;;22.60;99.90;;;;;;5071891;28;19918;-73
2022/07/10 07:56:42;;;;;;;;;;;22.60;99.90;;;;;;5072516;28;20331;-73
2022/07/10 07:59:08;;;;;;;;;;;22.60;99.90;;;;;;5072101;28;19913;-73
2022/07/10 08:01:33;;;;;;;;;;;22.50;99.90;;;;;;5072330;28;20370;-73
2022/07/10 08:03:59;;;;;;;;;;;22.50;99.90;;;;;;5071863;28;19962;-73
2022/07/10 08:06:25;;;;;;;;;;;22.50;99.90;;;;;;5072086;28;19923;-73
2022/07/10 08:08:50;;;;;;;;;;;22.60;99.90;;;;;;5072086;28;19908;-73
2022/07/10 08:11:16;;;;;;;;;;;22.50;99.90;;;;;;5071703;28;19923;-73
2022/07/10 08:13:43;;;;;;;;;;;22.60;99.90;;;;;;5071532;28;19912;-73
2022/07/10 08:16:08;;;;;;;;;;;22.70;99.90;;;;;;5071958;28;20562;-73
2022/07/10 08:18:33;;;;;;;;;;;22.80;99.90;;;;;;5071311;28;19916;-73
2022/07/10 08:20:59;;;;;;;;;;;22.80;99.90;;;;;;5071477;28;19924;-73
2022/07/10 08:23:24;;;;;;;;;;;23.00;99.90;;;;;;5071405;28;20012;-73
2022/07/10 08:25:50;;;;;;;;;;;23.30;99.90;;;;;;5071395;28;20383;-73
2022/07/10 08:28:16;;;;;;;;;;;23.50;99.90;;;;;;5053339;28;19908;-73
2022/07/10 08:30:42;;;;;;;;;;;23.60;99.90;;;;;;5071609;28;19924;-73
2022/07/10 08:33:08;;;;;;;;;;;23.50;99.90;;;;;;5071142;28;19912;-73
2022/07/10 08:35:34;;;;;;;;;;;23.50;99.90;;;;;;5053324;28;20322;-73
2022/07/10 08:37:59;;;;;;;;;;;22.70;99.90;;;;;;5071524;28;19912;-73
2022/07/10 08:40:25;;;;;;;;;;;23.20;99.90;;;;;;5053254;28;19974;-73
2022/07/10 08:42:50;;;;;;;;;;;23.20;99.90;;;;;;5070987;28;19909;-73
2022/07/10 08:45:16;;;;;;;;;;;23.30;99.90;;;;;;5052998;28;19916;-73
2022/07/10 08:47:44;;;;;;;;;;;23.70;99.90;;;;;;5071233;28;20257;-72
2022/07/10 08:50:17;;;;;;;;;;;24.20;99.90;;;;;;5070849;28;19917;-73
2022/07/10 08:52:46;;;;;;;;;;;24.60;99.90;;;;;;5070885;28;20360;-73
2022/07/10 08:55:14;;;;;;;;;;;24.90;99.90;;;;;;5070980;28;20473;-72
2022/07/10 08:57:42;;;;;;;;;;;25.20;99.90;;;;;;5069968;28;20276;-73
2022/07/10 09:00:08;;;;;;;;;;;25.40;99.90;;;;;;5071081;28;19924;-73
2022/07/10 09:02:33;;;;;;;;;;;25.50;99.90;;;;;;5070827;28;19924;-72
2022/07/10 09:04:59;;;;;;;;;;;25.40;99.90;;;;;;5052706;28;19924;-72
2022/07/10 09:07:24;;;;;;;;;;;25.70;99.90;;;;;;5070517;28;19942;-72
2022/07/10 09:09:54;;;;;;;;;;;25.80;99.90;;;;;;5052497;28;19916;-72
2022/07/10 09:12:23;;;;;;;;;;;26.00;99.90;;;;;;5070471;28;19916;-72
2022/07/10 09:14:49;;;;;;;;;;;26.40;99.90;;;;;;5052451;28;19923;-72
2022/07/10 09:17:15;;;;;;;;;;;26.50;99.90;;;;;;5070548;28;20289;-72
2022/07/10 09:19:41;;;;;;;;;;;26.70;99.90;;;;;;5070482;28;19912;-72
2022/07/10 09:22:11;;;;;;;;;;;26.60;99.90;;;;;;5070565;28;19915;-73
2022/07/10 09:24:38;;;;;;;;;;;26.20;99.90;;;;;;5070249;28;19948;-73
2022/07/10 09:27:04;;;;;;;;;;;25.90;99.90;;;;;;5070367;28;19913;-73
2022/07/10 09:29:30;;;;;;;;;;;25.40;99.90;;;;;;5070245;28;20014;-73
2022/07/10 09:31:56;;;;;;;;;;;25.00;99.90;;;;;;5070450;28;19996;-73
2022/07/10 09:34:38;;;;;;;;;;;24.80;99.90;;;;;;5070110;28;19913;-73
2022/07/10 09:37:18;;;;;;;;;;;24.80;99.90;;;;;;5070370;28;20244;-73
2022/07/10 09:40:01;;;;;;;;;;;25.00;99.90;;;;;;5048744;28;19935;-72
2022/07/10 09:42:40;;;;;;;;;;;25.10;99.90;;;;;;5050188;28;19951;-72
2022/07/10 09:45:12;;;;;;;;;;;25.40;99.90;;;;;;5048838;28;19917;-72
2022/07/10 09:47:38;;;;;;;;;;;25.70;99.90;;;;;;5050297;28;20476;-73
2022/07/10 09:50:04;;;;;;;;;;;26.00;99.90;;;;;;5050300;28;20078;-73
2022/07/10 09:52:29;;;;;;;;;;;26.40;99.60;;;;;;5050047;28;20053;-66
2022/07/10 09:54:59;;;;;;;;;;;26.50;99.10;;;;;;5050186;28;19927;-73
2022/07/10 09:57:26;;;;;;;;;;;26.50;99.30;;;;;;5050087;28;19913;-73
2022/07/10 09:59:53;;;;;;;;;;;26.60;98.90;;;;;;5050041;28;19921;-73
2022/07/10 10:02:19;;;;;;;;;;;26.90;98.80;;;;;;5050590;28;19913;-73
2022/07/10 10:04:45;;;;;;;;;;;27.00;98.20;;;;;;5049912;28;20019;-73
2022/07/10 10:07:12;;;;;;;;;;;27.20;97.50;;;;;;5050028;28;20012;-73
2022/07/10 10:09:40;;;;;;;;;;;27.50;96.30;;;;;;5052307;28;19916;-73
2022/07/10 10:12:15;;;;;;;;;;;27.50;96.10;;;;;;5054265;28;19913;-73
2022/07/10 10:14:41;;;;;;;;;;;27.60;94.60;;;;;;5054001;28;19912;-74
2022/07/10 10:17:07;;;;;;;;;;;27.80;94.30;;;;;;5054175;28;20007;-73
2022/07/10 10:22:18;;;;;;;;;;;28.20;93.90;;;;;;5054437;28;19978;-73
2022/07/10 10:24:45;;;;;;;;;;;28.30;93.80;;;;;;5053843;28;20357;-73
2022/07/10 10:27:11;;;;;;;;;;;28.20;94.50;;;;;;5052374;28;20428;-74
2022/07/10 10:29:37;;;;;;;;;;;28.30;94.20;;;;;;5053258;28;20012;-74
2022/07/10 10:32:03;;;;;;;;;;;28.50;93.20;;;;;;5052241;28;20007;-74
2022/07/10 10:34:41;;;;;;;;;;;28.70;92.90;;;;;;5053121;28;19999;-73
2022/07/10 10:37:27;;;;;;;;;;;28.70;93.30;;;;;;5053554;28;19920;-74
2022/07/10 10:39:53;;;;;;;;;;;28.80;93.80;;;;;;5051755;28;19951;-74
2022/07/10 10:42:37;;;;;;;;;;;28.80;93.80;;;;;;5053576;28;19909;-74
2022/07/10 10:45:22;;;;;;;;;;;28.80;93.50;;;;;;5053318;28;19917;-73
2022/07/10 10:48:05;;;;;;;;;;;28.90;93.70;;;;;;5052658;28;20417;-74
2022/07/10 10:51:06;;;;;;;;;;;28.60;94.10;;;;;;5053485;28;20324;-74
2022/07/10 10:53:31;;;;;;;;;;;28.80;94.20;;;;;;4991217;28;20016;-73
2022/07/10 10:55:59;;;;;;;;;;;28.90;94.40;;;;;;5040193;28;20404;-73
2022/07/10 10:58:25;;;;;;;;;;;28.80;94.30;;;;;;5053006;28;19924;-73
2022/07/10 11:00:51;;;;;;;;;;;28.60;94.30;;;;;;5053044;28;19913;-73
2022/07/10 11:03:20;;;;;;;;;;;28.70;94.70;;;;;;5052942;28;20046;-72
2022/07/10 11:05:46;;;;;;;;;;;28.50;94.40;;;;;;5053104;28;19958;-73
2022/07/10 11:08:12;;;;;;;;;;;28.30;93.90;;;;;;5053168;28;19913;-73
2022/07/10 11:10:38;;;;;;;;;;;28.40;93.20;;;;;;5053123;28;20335;-74
2022/07/10 11:13:05;;;;;;;;;;;28.50;93.10;;;;;;5053071;28;20048;-74
2022/07/10 11:15:35;;;;;;;;;;;28.20;93.60;;;;;;5052885;28;19913;-73
2022/07/10 11:18:05;;;;;;;;;;;28.20;93.70;;;;;;5053098;28;19980;-73
2022/07/10 11:20:34;;;;;;;;;;;28.10;94.30;;;;;;5052060;28;20007;-74
2022/07/10 11:23:06;;;;;;;;;;;28.20;94.50;;;;;;5052650;28;19927;-74
2022/07/10 11:25:41;;;;;;;;;;;27.70;95.10;;;;;;5052751;28;19936;-74
2022/07/10 11:28:09;;;;;;;;;;;27.10;96.30;;;;;;5053002;28;19917;-74
2022/07/10 11:30:44;;;;;;;;;;;26.20;98.10;;;;;;5052915;28;20305;-74
2022/07/10 11:33:09;;;;;;;;;;;26.20;99.10;;;;;;5052392;28;20301;-74
2022/07/10 11:35:35;;;;;;;;;;;26.60;98.70;;;;;;5052101;28;19920;-75
2022/07/10 11:38:01;;;;;;;;;;;26.50;99.00;;;;;;5052340;28;19916;-74
2022/07/10 11:40:26;;;;;;;;;;;26.20;99.00;;;;;;5062440;28;19920;-74
2022/07/10 11:42:53;;;;;;;;;;;26.10;99.20;;;;;;5072505;28;19921;-74
2022/07/10 11:45:25;;;;;;;;;;;26.40;98.70;;;;;;5072147;28;19982;-74
2022/07/10 11:47:51;;;;;;;;;;;26.90;98.30;;;;;;5072571;28;20310;-69
2022/07/10 11:50:17;;;;;;;;;;;27.10;97.60;;;;;;5072302;28;19909;-70
2022/07/10 11:52:42;;;;;;;;;;;27.50;97.10;;;;;;5072326;28;20439;-70
2022/07/10 11:55:15;;;;;;;;;;;27.80;96.40;;;;;;5072333;28;19912;-70
2022/07/10 11:57:50;;;;;;;;;;;27.60;95.90;;;;;;5072254;28;19975;-70
2022/07/10 12:00:25;;;;;;;;;;;27.10;96.60;;;;;;5072015;28;20347;-69
2022/07/10 12:02:54;;;;;;;;;;;26.50;96.90;;;;;;5071792;28;20003;-70
2022/07/10 12:05:36;;;;;;;;;;;26.20;97.20;;;;;;5072243;28;20256;-70
2022/07/10 12:08:02;;;;;;;;;;;26.10;96.90;;;;;;5054186;28;20261;-69
2022/07/10 12:10:32;;;;;;;;;;;25.80;97.40;;;;;;5071608;28;19961;-69
2022/07/10 12:13:08;;;;;;;;;;;25.90;97.30;;;;;;5071815;28;19921;-69
2022/07/10 12:15:35;;;;;;;;;;;26.10;96.90;;;;;;5071808;28;19909;-70
2022/07/10 12:18:00;;;;;;;;;;;26.10;96.90;;;;;;5071740;28;19924;-69
2022/07/10 12:20:26;;;;;;;;;;;26.10;97.00;;;;;;5071642;28;19919;-69
2022/07/10 12:22:54;;;;;;;;;;;26.00;96.90;;;;;;5071511;28;19916;-69
2022/07/10 12:25:22;;;;;;;;;;;25.80;97.10;;;;;;5071553;28;19909;-69
2022/07/10 12:27:48;;;;;;;;;;;25.90;96.90;;;;;;5071372;28;19916;-72
2022/07/10 12:30:13;;;;;;;;;;;26.00;96.60;;;;;;5071483;28;19918;-72
2022/07/10 12:32:39;;;;;;;;;;;26.30;96.20;;;;;;5070427;28;20391;-72
2022/07/10 12:35:11;;;;;;;;;;;26.60;96.50;;;;;;5071359;28;19909;-71
2022/07/10 12:37:46;;;;;;;;;;;26.70;96.30;;;;;;5071177;28;19921;-72
2022/07/10 12:40:29;;;;;;;;;;;26.90;95.70;;;;;;5071144;28;19924;-72
2022/07/10 12:43:00;;;;;;;;;;;27.00;95.50;;;;;;5071752;28;19923;-72
2022/07/10 12:45:26;;;;;;;;;;;26.80;94.90;;;;;;5071459;28;19912;-71
2022/07/10 12:47:52;;;;;;;;;;;26.60;94.40;;;;;;5071055;28;19927;-72
2022/07/10 12:50:18;;;;;;;;;;;26.40;93.70;;;;;;5071136;28;19908;-72
2022/07/10 12:52:44;;;;;;;;;;;26.10;94.00;;;;;;5070663;28;19973;-72
2022/07/10 12:55:15;;;;;;;;;;;25.90;93.40;;;;;;5070951;28;19912;-71
2022/07/10 12:57:45;;;;;;;;;;;25.80;93.90;;;;;;5070653;28;19920;-71
2022/07/10 13:00:13;;;;;;;;;;;25.90;94.20;;;;;;5070999;28;20003;-71
2022/07/10 13:02:39;;;;;;;;;;;25.90;93.70;;;;;;5070730;28;19991;-71
2022/07/10 13:05:04;;;;;;;;;;;25.90;94.20;;;;;;5052766;28;20020;-71
2022/07/10 13:07:30;;;;;;;;;;;25.80;94.30;;;;;;5070716;28;20299;-70
2022/07/10 13:09:55;;;;;;;;;;;25.80;94.10;;;;;;5070921;28;19912;-70
2022/07/10 13:12:21;;;;;;;;;;;25.90;94.00;;;;;;5052590;28;20360;-70
2022/07/10 13:14:46;;;;;;;;;;;25.90;93.80;;;;;;5070472;28;19923;-71
2022/07/10 13:17:12;;;;;;;;;;;25.80;94.50;;;;;;5070635;28;19923;-72
2022/07/10 13:19:37;;;;;;;;;;;25.80;95.10;;;;;;5070436;28;19912;-71
2022/07/10 13:22:03;;;;;;;;;;;25.80;95.30;;;;;;5052318;28;20013;-71
2022/07/10 13:24:29;;;;;;;;;;;25.70;95.60;;;;;;5052410;28;19916;-71
2022/07/10 13:26:56;;;;;;;;;;;25.60;95.10;;;;;;5052347;28;19943;-72
2022/07/10 13:29:22;;;;;;;;;;;25.60;95.10;;;;;;5070393;28;20331;-72
2022/07/10 13:31:47;;;;;;;;;;;25.70;95.10;;;;;;5070889;28;19908;-72
2022/07/10 13:34:13;;;;;;;;;;;25.70;95.30;;;;;;5070369;28;19927;-70
2022/07/10 13:36:38;;;;;;;;;;;25.90;95.40;;;;;;5070634;28;20052;-71
2022/07/10 13:39:04;;;;;;;;;;;25.80;94.80;;;;;;5070617;28;19924;-71
2022/07/10 13:41:29;;;;;;;;;;;25.80;93.80;;;;;;5069904;28;19936;-71
2022/07/10 13:43:55;;;;;;;;;;;25.90;93.90;;;;;;5069865;28;20433;-71
2022/07/10 13:46:21;;;;;;;;;;;25.90;93.50;;;;;;5070729;28;19970;-71
2022/07/10 13:48:46;;;;;;;;;;;25.80;93.40;;;;;;5070316;28;19916;-70
2022/07/10 13:51:12;;;;;;;;;;;25.80;93.30;;;;;;5070173;28;20257;-70
2022/07/10 13:53:37;;;;;;;;;;;25.70;93.60;;;;;;5070396;28;20015;-70
2022/07/10 13:56:06;;;;;;;;;;;25.60;94.60;;;;;;5070393;28;19912;-70
2022/07/10 13:58:32;;;;;;;;;;;25.50;95.30;;;;;;5070385;28;19920;-70
2022/07/10 14:00:59;;;;;;;;;;;25.40;95.20;;;;;;5070131;28;19913;-70
2022/07/10 14:03:24;;;;;;;;;;;25.30;94.70;;;;;;5070716;28;19959;-70
2022/07/10 14:05:50;;;;;;;;;;;25.30;94.50;;;;;;5070283;28;19955;-71
2022/07/10 14:08:16;;;;;;;;;;;25.20;94.60;;;;;;5070289;28;19916;-70
2022/07/10 14:10:41;;;;;;;;;;;25.20;94.90;;;;;;5051932;28;19959;-71
2022/07/10 14:13:08;;;;;;;;;;;25.10;95.30;;;;;;5070342;28;19927;-71
2022/07/10 14:15:34;;;;;;;;;;;25.10;95.40;;;;;;5069813;28;19951;-71
2022/07/10 14:18:00;;;;;;;;;;;25.00;95.50;;;;;;5070160;28;20388;-71
2022/07/10 14:20:26;;;;;;;;;;;24.90;95.90;;;;;;5069885;28;19962;-71
2022/07/10 14:22:51;;;;;;;;;;;24.80;96.20;;;;;;5069987;28;19912;-72
2022/07/10 14:25:17;;;;;;;;;;;24.70;96.20;;;;;;5069807;28;19950;-71
2022/07/10 14:27:42;;;;;;;;;;;24.60;96.40;;;;;;5069999;28;20058;-71